Time;durP1;ratioP1;P1;durP2;ratioP2;P2;SDS_P1;SDS_P2;PMS_P1;PMS_P2;Temp;Humidity;BMP_temperature;BMP_pressure;BME280_temperature;BME280_humidity;BME280_pressure;Samples;Min_cycle;Max_cycle;Signal;HPM_P1;HPM_P2
2023/08/21 00:01:31;;;;;;;66.00;59.10;;;;;;;34.54;17.63;100092.56;5026489;28;20081;-74
2023/08/21 00:04:00;;;;;;;63.42;56.83;;;;;;;34.54;17.95;100091.72;5025798;28;20711;-74
2023/08/21 00:06:28;;;;;;;60.97;54.53;;;;;;;34.52;18.27;100090.97;5021465;28;20050;-74
2023/08/21 00:08:59;;;;;;;63.17;56.22;;;;;;;34.49;18.26;100094.78;5022802;28;20046;-72
2023/08/21 00:11:27;;;;;;;60.33;53.83;;;;;;;34.42;18.18;100097.09;5024422;28;20045;-71
2023/08/21 00:13:56;;;;;;;60.33;53.95;;;;;;;34.36;18.25;100100.31;5022222;28;20539;-75
2023/08/21 00:16:26;;;;;;;58.15;52.15;;;;;;;34.31;18.96;100091.75;5021798;28;20054;-75
2023/08/21 00:19:02;;;;;;;59.83;53.53;;;;;;;34.27;18.50;100095.69;5026029;28;20055;-76
2023/08/21 00:21:30;;;;;;;62.65;55.42;;;;;;;34.22;19.14;100092.50;5024686;28;20072;-76
2023/08/21 00:24:16;;;;;;;58.67;52.42;;;;;;;34.19;19.88;100092.75;5012531;28;20054;-74
2023/08/21 00:26:51;;;;;;;60.13;53.65;;;;;;;34.13;18.96;100091.41;5005474;28;20042;-73
2023/08/21 00:29:20;;;;;;;58.88;52.55;;;;;;;34.07;18.66;100082.97;5003882;28;20408;-76
2023/08/21 00:31:49;;;;;;;56.20;50.33;;;;;;;34.03;19.16;100092.22;4996290;28;20568;-77
2023/08/21 00:34:17;;;;;;;56.30;50.33;;;;;;;33.96;19.07;100090.03;5002469;28;20054;-74
2023/08/21 00:36:46;;;;;;;55.13;49.33;;;;;;;33.95;19.00;100085.66;4998292;28;20092;-80
2023/08/21 00:39:16;;;;;;;56.35;50.30;;;;;;;33.91;19.18;100089.53;5005293;28;20049;-80
2023/08/21 00:41:45;;;;;;;54.67;48.83;;;;;;;33.87;19.13;100090.75;4994511;28;20050;-77
2023/08/21 00:44:13;;;;;;;52.78;47.30;;;;;;;33.86;19.33;100097.09;5004005;28;20057;-77
2023/08/21 00:46:45;;;;;;;53.22;47.08;;;;;;;33.80;19.48;100098.44;5003426;28;20045;-76
2023/08/21 00:49:13;;;;;;;53.75;48.03;;;;;;;33.72;19.85;100100.00;4997011;28;20497;-76
2023/08/21 00:51:42;;;;;;;52.42;46.95;;;;;;;33.63;19.51;100106.97;5003137;28;20054;-77
2023/08/21 00:54:11;;;;;;;51.55;46.03;;;;;;;33.58;20.17;100099.25;4998502;28;20105;-79
2023/08/21 00:56:45;;;;;;;47.65;42.63;;;;;;;33.45;19.23;100102.97;5002947;28;20504;-77
2023/08/21 00:59:15;;;;;;;47.28;42.15;;;;;;;33.34;19.42;100096.59;5000283;28;20057;-80
2023/08/21 01:01:44;;;;;;;48.92;43.65;;;;;;;33.31;19.83;100098.66;5003034;28;20046;-80
2023/08/21 01:04:13;;;;;;;46.92;41.72;;;;;;;33.23;19.80;100098.38;5010163;28;20489;-77
2023/08/21 01:06:42;;;;;;;46.75;41.63;;;;;;;33.11;19.13;100095.66;5025603;28;20770;-79
2023/08/21 01:09:19;;;;;;;45.20;40.35;;;;;;;33.02;19.97;100096.31;5020016;28;20267;-79
2023/08/21 01:11:58;;;;;;;45.25;40.40;;;;;;;32.95;20.78;100100.44;5020969;28;20095;-76
2023/08/21 01:14:33;;;;;;;47.90;41.85;;;;;;;32.85;21.72;100104.75;5011493;28;20058;-79
2023/08/21 01:17:04;;;;;;;46.25;41.42;;;;;;;32.76;21.08;100100.94;5018452;28;20065;-77
2023/08/21 01:19:39;;;;;;;46.58;41.33;;;;;;;32.67;20.93;100105.16;5025527;28;20046;-77
2023/08/21 01:22:08;;;;;;;45.15;40.50;;;;;;;32.62;21.01;100093.06;5024060;28;20053;-75
2023/08/21 01:24:38;;;;;;;44.55;39.78;;;;;;;32.52;21.42;100092.88;5025222;28;20081;-77
2023/08/21 01:27:07;;;;;;;44.55;39.90;;;;;;;32.43;21.83;100097.03;5018638;28;20461;-79
2023/08/21 01:29:36;;;;;;;45.60;40.95;;;;;;;32.33;21.72;100094.19;5022829;28;20431;-78
2023/08/21 01:32:14;;;;;;;46.25;41.42;;;;;;;32.23;21.82;100086.91;5026061;28;20108;-75
2023/08/21 01:34:43;;;;;;;45.80;40.90;;;;;;;32.16;21.17;100091.00;5029733;28;20060;-76
2023/08/21 01:37:13;;;;;;;44.85;40.15;;;;;;;32.05;22.59;100089.94;5026654;28;20045;-76
2023/08/21 01:39:44;;;;;;;44.42;39.75;;;;;;;31.99;22.67;100089.53;5022299;28;20050;-78
2023/08/21 01:42:12;;;;;;;45.88;41.08;;;;;;;31.89;22.18;100090.16;5020273;28;20072;-76
2023/08/21 01:44:41;;;;;;;44.70;40.10;;;;;;;31.76;24.47;100083.94;5023170;28;20046;-72
2023/08/21 01:47:10;;;;;;;42.15;37.78;;;;;;;31.65;24.40;100095.38;5023930;28;20230;-75
2023/08/21 01:49:38;;;;;;;43.03;37.85;;;;;;;31.57;21.74;100086.19;5030655;28;20052;-76
2023/08/21 01:52:07;;;;;;;44.05;39.38;;;;;;;31.48;21.70;100087.66;5020026;28;20057;-75
2023/08/21 01:54:38;;;;;;;42.67;38.08;;;;;;;31.36;22.82;100089.34;5025567;28;20065;-77
2023/08/21 01:57:09;;;;;;;41.95;37.45;;;;;;;31.28;22.99;100086.31;5023482;28;20109;-78
2023/08/21 01:59:37;;;;;;;43.20;37.03;;;;;;;31.16;21.55;100082.66;5026755;28;20683;-76
2023/08/21 02:02:06;;;;;;;41.10;36.80;;;;;;;31.08;22.73;100080.50;5022541;28;20538;-72
2023/08/21 02:04:43;;;;;;;37.90;33.83;;;;;;;31.00;22.23;100088.16;5021190;28;20057;-77
2023/08/21 02:07:12;;;;;;;38.90;34.75;;;;;;;30.95;23.25;100090.28;5028370;28;20091;-77
2023/08/21 02:09:40;;;;;;;38.30;30.13;;;;;;;30.89;23.60;100096.03;5023043;28;20045;-75
2023/08/21 02:12:11;;;;;;;31.13;27.75;;;;;;;30.85;23.36;100099.84;5030225;28;20426;-77
2023/08/21 02:14:39;;;;;;;29.90;26.70;;;;;;;30.82;24.31;100102.69;5026505;28;20045;-76
2023/08/21 02:17:08;;;;;;;36.70;32.80;;;;;;;30.77;24.85;100096.81;5026053;28;20049;-77
2023/08/21 02:19:36;;;;;;;31.83;27.77;;;;;;;30.74;25.05;100107.69;5028733;28;20119;-75
2023/08/21 02:22:05;;;;;;;35.13;31.02;;;;;;;30.66;24.93;100103.69;5026855;28;20053;-76
2023/08/21 02:24:33;;;;;;;29.17;25.42;;;;;;;30.55;25.20;100103.53;5028455;28;20057;-77
2023/08/21 02:27:04;;;;;;;32.83;27.58;;;;;;;30.45;26.04;100103.25;5025529;28;20059;-74
2023/08/21 02:29:35;;;;;;;33.03;26.40;;;;;;;30.34;26.22;100102.22;5018414;28;20060;-77
2023/08/21 02:32:03;;;;;;;28.17;21.60;;;;;;;30.20;26.31;100103.94;5019069;28;20583;-77
2023/08/21 02:34:32;;;;;;;24.73;20.65;;;;;;;30.06;26.03;100104.78;5018527;28;20645;-77
2023/08/21 02:37:02;;;;;;;24.98;20.77;;;;;;;29.96;26.56;100106.31;5020050;28;20512;-76
2023/08/21 02:39:31;;;;;;;25.98;19.98;;;;;;;29.90;26.02;100113.84;5022633;28;20056;-78
2023/08/21 02:42:00;;;;;;;25.08;20.27;;;;;;;29.81;26.19;100116.09;5027239;28;20591;-76
2023/08/21 02:44:28;;;;;;;24.83;19.58;;;;;;;29.75;26.55;100123.63;5029373;28;20046;-77
2023/08/21 02:46:59;;;;;;;26.00;19.63;;;;;;;29.70;27.10;100123.91;5024859;28;20045;-78
2023/08/21 02:49:27;;;;;;;22.55;19.90;;;;;;;29.67;26.99;100124.06;5027209;28;20049;-76
2023/08/21 02:51:56;;;;;;;26.23;20.77;;;;;;;29.63;28.07;100127.84;5031239;28;20044;-75
2023/08/21 02:54:25;;;;;;;25.17;19.48;;;;;;;29.59;27.36;100136.97;5022569;28;20057;-78
2023/08/21 02:56:53;;;;;;;23.15;19.15;;;;;;;29.49;27.18;100134.00;5030087;28;20057;-78
2023/08/21 02:59:22;;;;;;;27.98;19.15;;;;;;;29.39;26.99;100141.69;5038214;28;20049;-78
2023/08/21 03:01:59;;;;;;;23.67;18.73;;;;;;;29.28;27.47;100133.47;5048886;28;20077;-76
2023/08/21 03:04:29;;;;;;;27.27;20.58;;;;;;;29.15;28.39;100151.09;5048457;28;20124;-77
2023/08/21 03:06:58;;;;;;;23.60;19.80;;;;;;;28.95;28.33;100147.72;5040682;28;20057;-76
2023/08/21 03:09:26;;;;;;;25.70;18.73;;;;;;;28.82;28.05;100150.25;5028339;28;20050;-79
2023/08/21 03:11:59;;;;;;;22.15;17.80;;;;;;;28.68;27.69;100134.19;5018554;28;20046;-74
2023/08/21 03:14:29;;;;;;;20.70;17.65;;;;;;;28.65;27.64;100144.13;5025050;28;20315;-78
2023/08/21 03:16:57;;;;;;;25.02;18.85;;;;;;;28.59;27.63;100140.88;5021508;28;20530;-74
2023/08/21 03:19:26;;;;;;;23.35;17.83;;;;;;;28.55;27.29;100154.44;5026332;28;20075;-77
2023/08/21 03:21:58;;;;;;;21.98;18.52;;;;;;;28.49;27.24;100149.44;5026378;28;20537;-74
2023/08/21 03:24:26;;;;;;;23.88;20.20;;;;;;;28.43;29.59;100150.63;5029984;28;20068;-77
2023/08/21 03:26:55;;;;;;;23.33;17.27;;;;;;;28.36;27.83;100155.41;5021853;28;20068;-78
2023/08/21 03:29:23;;;;;;;23.15;18.17;;;;;;;28.28;26.61;100151.44;5020854;28;20042;-73
2023/08/21 03:31:54;;;;;;;22.17;18.58;;;;;;;28.22;26.62;100152.59;5025336;28;20060;-74
2023/08/21 03:34:22;;;;;;;23.88;19.25;;;;;;;28.17;26.36;100150.19;5023121;28;20618;-73
2023/08/21 03:36:51;;;;;;;22.42;18.90;;;;;;;28.11;25.96;100158.53;5025332;28;20061;-78
2023/08/21 03:39:21;;;;;;;22.23;18.40;;;;;;;28.07;25.88;100162.28;5014351;28;20107;-78
2023/08/21 03:41:49;;;;;;;24.58;19.90;;;;;;;28.02;25.54;100166.13;5016638;28;20605;-75
2023/08/21 03:44:18;;;;;;;23.65;19.52;;;;;;;27.95;25.56;100166.44;5019690;28;20049;-78
2023/08/21 03:46:49;;;;;;;24.65;19.40;;;;;;;27.89;25.33;100171.22;5021535;28;20055;-78
2023/08/21 03:49:18;;;;;;;23.83;19.10;;;;;;;27.82;25.49;100169.78;5025940;28;20781;-77
2023/08/21 03:51:46;;;;;;;26.20;20.48;;;;;;;27.74;25.09;100170.16;5028481;28;20495;-78
2023/08/21 03:54:14;;;;;;;25.63;20.45;;;;;;;27.70;24.99;100182.75;5018641;28;20087;-78
2023/08/21 03:56:47;;;;;;;25.17;20.67;;;;;;;27.64;25.46;100187.53;5016130;28;20411;-79
2023/08/21 03:59:16;;;;;;;26.80;21.23;;;;;;;27.53;25.99;100186.28;5019577;28;20069;-76
2023/08/21 04:01:45;;;;;;;27.38;21.17;;;;;;;27.49;25.47;100191.81;5026409;28;20049;-75
2023/08/21 04:04:14;;;;;;;28.30;21.27;;;;;;;27.42;27.24;100193.91;5015758;28;20046;-74
2023/08/21 04:06:42;;;;;;;25.50;20.55;;;;;;;27.32;27.00;100198.81;5024442;28;20096;-74
2023/08/21 04:09:11;;;;;;;25.48;20.73;;;;;;;27.22;26.59;100213.47;5016983;28;20057;-76
2023/08/21 04:11:40;;;;;;;31.58;23.25;;;;;;;27.15;26.16;100202.25;5018933;28;20045;-77
2023/08/21 04:14:10;;;;;;;32.70;24.77;;;;;;;27.10;25.83;100208.75;5015793;28;20698;-76
2023/08/21 04:16:38;;;;;;;32.88;26.98;;;;;;;27.05;25.17;100221.34;5022627;28;20115;-72
2023/08/21 04:19:07;;;;;;;31.85;26.15;;;;;;;27.00;25.41;100212.75;5028082;28;20053;-78
2023/08/21 04:21:38;;;;;;;39.28;32.05;;;;;;;26.91;24.76;100214.88;5033724;28;20056;-78
2023/08/21 04:24:07;;;;;;;41.30;33.40;;;;;;;26.87;24.77;100223.06;5029607;28;20049;-76
2023/08/21 04:26:36;;;;;;;37.08;31.02;;;;;;;26.75;24.79;100213.88;5026148;28;20056;-73
2023/08/21 04:29:04;;;;;;;37.95;31.02;;;;;;;26.70;25.30;100221.22;5032152;28;20056;-76
2023/08/21 04:31:38;;;;;;;37.22;31.00;;;;;;;26.63;24.44;100214.47;5032255;28;20095;-72
2023/08/21 04:34:06;;;;;;;43.55;36.00;;;;;;;26.55;24.09;100230.75;5020515;28;20058;-74
2023/08/21 04:36:35;;;;;;;39.45;32.90;;;;;;;26.50;25.02;100236.22;5031598;28;20557;-73
2023/08/21 04:39:03;;;;;;;47.25;38.35;;;;;;;26.41;24.29;100218.06;5024305;28;20061;-72
2023/08/21 04:41:34;;;;;;;43.28;36.72;;;;;;;26.35;24.42;100228.94;5027119;28;20049;-75
2023/08/21 04:44:03;;;;;;;41.63;36.20;;;;;;;26.31;24.37;100232.66;5022118;28;20120;-74
2023/08/21 04:46:31;;;;;;;47.05;37.00;;;;;;;26.22;23.98;100214.50;5025026;28;20041;-75
2023/08/21 04:49:01;;;;;;;46.28;39.00;;;;;;;26.15;23.83;100221.00;5022661;28;20053;-74
2023/08/21 04:51:30;;;;;;;45.45;38.55;;;;;;;26.11;24.50;100223.78;5019358;28;20562;-74
2023/08/21 04:54:02;;;;;;;45.42;38.88;;;;;;;26.09;24.08;100219.47;5021692;28;20053;-73
2023/08/21 04:56:31;;;;;;;45.67;38.20;;;;;;;26.06;24.20;100225.75;5025061;28;20743;-73
2023/08/21 04:59:02;;;;;;;49.00;40.50;;;;;;;25.99;23.94;100226.09;5024355;28;20879;-72
2023/08/21 05:01:31;;;;;;;50.47;42.33;;;;;;;25.87;24.22;100222.19;5023035;28;20041;-74
2023/08/21 05:04:01;;;;;;;55.53;44.97;;;;;;;25.77;24.09;100224.34;5022829;28;20550;-73
2023/08/21 05:06:33;;;;;;;53.28;44.15;;;;;;;25.73;24.22;100216.59;5027149;28;20049;-74
2023/08/21 05:09:01;;;;;;;54.83;44.55;;;;;;;25.71;24.23;100225.44;5023778;28;20584;-73
2023/08/21 05:11:30;;;;;;;55.35;44.53;;;;;;;25.70;23.99;100231.69;5022346;28;20053;-74
2023/08/21 05:14:01;;;;;;;53.72;45.30;;;;;;;25.69;24.29;100224.63;5025606;28;21311;-74
2023/08/21 05:16:32;;;;;;;55.42;45.30;;;;;;;25.67;23.78;100221.19;5025124;28;20758;-72
2023/08/21 05:19:02;;;;;;;53.00;45.00;;;;;;;25.61;24.30;100226.75;5021722;28;20716;-73
2023/08/21 05:21:31;;;;;;;53.78;43.47;;;;;;;25.53;24.50;100226.19;5020999;28;20488;-73
2023/08/21 05:23:59;;;;;;;55.97;45.85;;;;;;;25.45;24.20;100223.03;5029789;28;20057;-76
2023/08/21 05:26:32;;;;;;;56.63;47.15;;;;;;;25.38;24.29;100218.88;5026239;28;20085;-75
2023/08/21 05:29:01;;;;;;;55.20;45.88;;;;;;;25.29;25.07;100217.47;5021265;28;20095;-75
2023/08/21 05:31:29;;;;;;;55.42;44.88;;;;;;;25.24;24.73;100222.97;5023830;28;20068;-72
2023/08/21 05:33:58;;;;;;;55.63;46.25;;;;;;;25.21;25.38;100209.81;5020037;28;20554;-76
2023/08/21 05:36:29;;;;;;;59.15;46.47;;;;;;;25.16;25.52;100216.22;5025009;28;20057;-75
2023/08/21 05:38:58;;;;;;;57.85;46.17;;;;;;;25.12;25.71;100211.94;5022532;28;20052;-77
2023/08/21 05:41:27;;;;;;;52.15;45.22;;;;;;;25.04;25.88;100217.56;5024775;28;20057;-77
2023/08/21 05:43:55;;;;;;;51.17;43.72;;;;;;;25.03;25.82;100221.09;5025408;28;20593;-77
2023/08/21 05:46:24;;;;;;;52.03;43.50;;;;;;;25.02;25.62;100225.53;5023942;28;20061;-76
2023/08/21 05:48:52;;;;;;;55.78;45.25;;;;;;;24.96;25.67;100224.91;5023507;28;20046;-75
2023/08/21 05:51:21;;;;;;;55.88;47.33;;;;;;;24.85;25.58;100217.38;5025434;28;20530;-75
2023/08/21 05:53:51;;;;;;;54.35;44.97;;;;;;;24.81;26.33;100223.72;5025591;28;20104;-77
2023/08/21 05:56:20;;;;;;;55.30;46.42;;;;;;;24.69;26.22;100205.66;5027365;28;20297;-71
2023/08/21 05:58:48;;;;;;;53.08;45.85;;;;;;;24.68;27.22;100212.72;5022847;28;20050;-75
2023/08/21 06:01:17;;;;;;;54.88;46.08;;;;;;;24.65;26.86;100215.50;5030260;28;20041;-74
2023/08/21 06:03:45;;;;;;;53.95;46.10;;;;;;;24.62;26.37;100218.25;5031366;28;20537;-71
2023/08/21 06:06:14;;;;;;;55.90;45.90;;;;;;;24.55;26.64;100214.97;5039613;28;20042;-76
2023/08/21 06:08:42;;;;;;;56.97;46.03;;;;;;;24.51;27.11;100218.66;5051104;28;20059;-73
2023/08/21 06:11:14;;;;;;;59.17;47.38;;;;;;;24.42;26.39;100211.88;5047184;28;20080;-75
2023/08/21 06:13:43;;;;;;;55.63;46.55;;;;;;;24.37;27.53;100218.25;5040944;28;20325;-75
2023/08/21 06:16:11;;;;;;;55.20;46.55;;;;;;;24.31;27.31;100216.69;5032791;28;20500;-72
2023/08/21 06:18:39;;;;;;;57.67;47.33;;;;;;;24.23;27.64;100229.31;5029765;28;20046;-77
2023/08/21 06:21:09;;;;;;;56.08;46.75;;;;;;;24.12;28.13;100231.47;5028256;28;20112;-76
2023/08/21 06:23:38;;;;;;;56.03;46.10;;;;;;;24.04;28.05;100231.75;5034814;28;20048;-76
2023/08/21 06:26:13;;;;;;;56.65;46.65;;;;;;;23.95;28.20;100235.56;5011273;28;20961;-75
2023/08/21 06:28:49;;;;;;;55.13;46.05;;;;;;;23.79;28.51;100237.84;5024087;28;20072;-72
2023/08/21 06:31:17;;;;;;;56.60;47.70;;;;;;;23.76;28.89;100245.03;5030282;28;20045;-73
2023/08/21 06:33:48;;;;;;;53.80;45.83;;;;;;;23.72;28.26;100244.22;5027364;28;20165;-75
2023/08/21 06:36:16;;;;;;;53.17;45.55;;;;;;;23.70;28.06;100250.47;5028076;28;20104;-74
2023/08/21 06:38:45;;;;;;;52.45;43.35;;;;;;;23.72;27.05;100246.00;5028492;28;20046;-76
2023/08/21 06:41:13;;;;;;;58.03;46.28;;;;;;;23.71;27.57;100252.19;5027376;28;20113;-75
2023/08/21 06:43:42;;;;;;;57.50;47.35;;;;;;;23.69;27.34;100244.34;5033134;28;20080;-71
2023/08/21 06:46:15;;;;;;;56.42;44.25;;;;;;;23.62;27.66;100243.69;5024789;28;20049;-74
2023/08/21 06:48:43;;;;;;;52.78;41.50;;;;;;;23.58;27.71;100247.31;5025666;28;20119;-75
2023/08/21 06:51:12;;;;;;;57.42;43.60;;;;;;;23.59;27.36;100248.19;5026764;28;20114;-73
2023/08/21 06:53:41;;;;;;;51.63;43.38;;;;;;;23.56;27.40;100259.72;5024373;28;20050;-71
2023/08/21 06:56:10;;;;;;;51.92;43.10;;;;;;;23.53;27.92;100258.97;5030787;28;20466;-73
2023/08/21 06:58:41;;;;;;;52.53;44.38;;;;;;;23.47;28.45;100262.66;5026967;28;20049;-73
2023/08/21 07:01:09;;;;;;;52.72;43.00;;;;;;;23.30;28.64;100264.97;5025542;28;20396;-74
2023/08/21 07:03:39;;;;;;;55.65;45.42;;;;;;;23.25;29.17;100270.38;5031248;28;20049;-69
2023/08/21 07:06:08;;;;;;;50.55;42.90;;;;;;;23.13;28.85;100266.31;5027358;28;20047;-72
2023/08/21 07:08:37;;;;;;;52.67;41.75;;;;;;;23.17;27.99;100257.41;5028037;28;20052;-76
2023/08/21 07:11:06;;;;;;;54.70;41.50;;;;;;;23.20;28.10;100256.44;5029909;28;20050;-71
2023/08/21 07:13:34;;;;;;;47.72;39.38;;;;;;;23.14;29.08;100244.31;5027579;28;20053;-74
2023/08/21 07:16:04;;;;;;;52.42;40.60;;;;;;;23.14;29.34;100248.75;5027070;28;20049;-74
2023/08/21 07:18:35;;;;;;;53.97;43.13;;;;;;;23.08;28.63;100257.69;5025277;28;20071;-77
2023/08/21 07:21:05;;;;;;;54.38;42.15;;;;;;;23.05;28.94;100255.16;5031265;28;20052;-75
2023/08/21 07:23:34;;;;;;;55.10;42.53;;;;;;;23.04;28.92;100257.81;5034169;28;20107;-75
2023/08/21 07:26:04;;;;;;;52.05;39.72;;;;;;;23.02;28.44;100247.34;5019695;28;20057;-75
2023/08/21 07:28:33;;;;;;;54.15;40.63;;;;;;;23.00;28.51;100249.16;5022685;28;20124;-77
2023/08/21 07:31:09;;;;;;;54.22;41.85;;;;;;;23.02;28.42;100254.38;5028430;28;20060;-75
2023/08/21 07:33:38;;;;;;;51.90;40.53;;;;;;;23.02;28.62;100259.63;5026448;28;20071;-78
2023/08/21 07:36:08;;;;;;;54.53;40.00;;;;;;;23.00;28.08;100254.44;5024614;28;20041;-73
2023/08/21 07:38:37;;;;;;;51.75;39.20;;;;;;;22.98;28.83;100250.94;5026136;28;20057;-76
2023/08/21 07:41:07;;;;;;;52.20;40.92;;;;;;;22.94;28.41;100244.88;5014251;28;20170;-76
2023/08/21 07:43:36;;;;;;;54.80;40.20;;;;;;;22.90;28.40;100242.38;5023786;28;20047;-73
2023/08/21 07:46:05;;;;;;;55.38;39.58;;;;;;;22.86;28.97;100243.38;5027447;28;20538;-70
2023/08/21 07:48:34;;;;;;;54.63;39.60;;;;;;;22.82;28.87;100239.97;5021579;28;20052;-74
2023/08/21 07:51:03;;;;;;;47.10;38.40;;;;;;;22.80;28.59;100240.00;5017989;28;20545;-73
2023/08/21 07:53:34;;;;;;;50.72;36.60;;;;;;;22.78;29.47;100228.63;5027461;28;20099;-74
2023/08/21 07:56:03;;;;;;;46.90;37.95;;;;;;;22.75;28.86;100236.66;5030735;28;20052;-77
2023/08/21 07:58:32;;;;;;;48.83;35.97;;;;;;;22.70;29.50;100230.66;5026864;28;20741;-76
2023/08/21 08:01:01;;;;;;;48.97;36.42;;;;;;;22.66;29.12;100228.16;5026916;28;20050;-77
2023/08/21 08:03:30;;;;;;;50.10;36.42;;;;;;;22.62;28.95;100232.63;5028955;28;20077;-75
2023/08/21 08:05:58;;;;;;;51.35;35.72;;;;;;;22.56;29.23;100238.06;5023839;28;20054;-72
2023/08/21 08:08:27;;;;;;;48.47;35.22;;;;;;;22.51;29.64;100237.34;5025747;28;20127;-73
2023/08/21 08:10:57;;;;;;;47.65;34.92;;;;;;;22.46;29.49;100233.97;5026062;28;20085;-76
2023/08/21 08:13:25;;;;;;;47.72;34.20;;;;;;;22.40;29.51;100236.78;5026689;28;20474;-75
2023/08/21 08:15:59;;;;;;;45.15;31.63;;;;;;;22.32;29.63;100240.47;5030311;28;20098;-73
2023/08/21 08:18:27;;;;;;;45.75;31.45;;;;;;;22.24;29.71;100233.69;5024476;28;20092;-72
2023/08/21 08:20:56;;;;;;;42.78;30.15;;;;;;;22.18;29.56;100237.31;5029892;28;20099;-75
2023/08/21 08:23:24;;;;;;;42.80;30.13;;;;;;;22.14;29.32;100235.69;5023160;28;20092;-77
2023/08/21 08:26:01;;;;;;;40.38;30.60;;;;;;;22.12;30.18;100232.22;5027812;28;20415;-74
2023/08/21 08:28:31;;;;;;;40.38;28.52;;;;;;;22.06;29.82;100237.63;5033324;28;20045;-73
2023/08/21 08:31:00;;;;;;;36.67;28.02;;;;;;;22.05;30.30;100220.09;5028862;28;20042;-74
2023/08/21 08:33:29;;;;;;;38.13;28.88;;;;;;;21.99;30.31;100220.25;5023008;28;20049;-72
2023/08/21 08:35:57;;;;;;;36.65;26.38;;;;;;;21.98;29.99;100231.72;5024639;28;20640;-71
2023/08/21 08:38:28;;;;;;;37.78;28.83;;;;;;;21.94;29.89;100229.16;5021591;28;20579;-71
2023/08/21 08:40:58;;;;;;;37.72;27.52;;;;;;;21.93;30.00;100240.59;5023600;28;20041;-72
2023/08/21 08:43:29;;;;;;;35.20;27.20;;;;;;;21.92;31.06;100230.09;5022725;28;20267;-73
2023/08/21 08:46:01;;;;;;;33.13;25.23;;;;;;;21.87;30.34;100235.47;5024250;28;20049;-72
2023/08/21 08:48:30;;;;;;;34.58;25.40;;;;;;;21.84;30.38;100243.47;5029944;28;20045;-75
2023/08/21 08:50:59;;;;;;;33.40;24.00;;;;;;;21.81;30.55;100238.28;5026242;28;20111;-72
2023/08/21 08:53:29;;;;;;;33.10;25.77;;;;;;;21.79;31.19;100248.00;5029268;28;20053;-75
2023/08/21 08:55:58;;;;;;;30.45;23.27;;;;;;;21.73;31.56;100245.50;5030169;28;20061;-74
2023/08/21 08:58:27;;;;;;;30.83;22.65;;;;;;;21.68;31.56;100244.75;5034520;28;20046;-76
2023/08/21 09:00:55;;;;;;;32.08;21.52;;;;;;;21.62;30.89;100242.25;5033220;28;20503;-75
2023/08/21 09:03:26;;;;;;;30.13;22.35;;;;;;;21.53;31.62;100236.31;5040196;28;20049;-74
2023/08/21 09:05:55;;;;;;;32.95;22.98;;;;;;;21.41;31.95;100244.50;5030632;28;20320;-71
2023/08/21 09:08:23;;;;;;;31.20;22.85;;;;;;;21.33;32.53;100241.16;5046804;28;20104;-75
2023/08/21 09:10:55;;;;;;;30.25;21.10;;;;;;;21.25;31.99;100253.63;5048665;28;20040;-75
2023/08/21 09:13:23;;;;;;;30.83;20.90;;;;;;;21.20;32.31;100248.47;5040842;28;20119;-77
2023/08/21 09:15:56;;;;;;;29.27;20.90;;;;;;;21.17;31.92;100245.03;5031203;28;20042;-76
2023/08/21 09:18:29;;;;;;;29.77;21.95;;;;;;;21.15;32.74;100247.69;5024534;28;20109;-74
2023/08/21 09:20:57;;;;;;;;;;;;;;;21.11;32.75;100244.25;5023706;28;20621;-73
2023/08/21 09:23:26;;;;;;;26.35;18.77;;;;;;;21.08;32.43;100249.59;5025663;28;19921;-72
2023/08/21 09:25:54;;;;;;;26.63;17.63;;;;;;;21.02;32.91;100244.47;5024609;28;20787;-73
2023/08/21 09:28:23;;;;;;;23.02;16.80;;;;;;;20.99;32.81;100247.16;5028365;28;20519;-71
2023/08/21 09:30:58;;;;;;;26.33;18.52;;;;;;;20.96;32.78;100251.63;5024584;28;20135;-72
2023/08/21 09:33:28;;;;;;;27.98;19.45;;;;;;;20.80;34.84;100236.19;5025754;28;20519;-71
2023/08/21 09:35:57;;;;;;;25.55;18.17;;;;;;;20.80;33.81;100254.59;5029436;28;20053;-70
2023/08/21 09:38:30;;;;;;;26.67;17.98;;;;;;;20.65;33.72;100247.84;5023085;28;20061;-73
2023/08/21 09:40:59;;;;;;;24.80;17.55;;;;;;;20.62;34.04;100253.19;5025651;28;20049;-71
2023/08/21 09:43:27;;;;;;;25.70;17.90;;;;;;;20.48;34.19;100258.69;5028034;28;20056;-72
2023/08/21 09:45:57;;;;;;;25.92;17.23;;;;;;;20.38;34.55;100253.63;5029555;28;20881;-71
2023/08/21 09:48:28;;;;;;;26.90;18.95;;;;;;;20.27;34.94;100253.81;5027630;28;20057;-74
2023/08/21 09:50:57;;;;;;;22.75;16.52;;;;;;;20.19;35.04;100248.72;5035658;28;20052;-72
2023/08/21 09:53:26;;;;;;;25.45;17.25;;;;;;;20.06;35.45;100257.69;5035410;28;20495;-72
2023/08/21 09:55:57;;;;;;;24.63;17.15;;;;;;;19.95;35.90;100250.03;5036414;28;20060;-72
2023/08/21 09:58:26;;;;;;;23.75;15.82;;;;;;;19.86;36.27;100248.41;5029545;28;20115;-72
2023/08/21 10:01:00;;;;;;;23.98;16.77;;;;;;;19.84;37.14;100247.56;5030299;28;20685;-73
2023/08/21 10:03:31;;;;;;;21.92;14.88;;;;;;;19.81;36.08;100255.50;5029340;28;20053;-72
2023/08/21 10:06:01;;;;;;;20.52;14.35;;;;;;;19.78;36.73;100247.66;5029066;28;20735;-74
2023/08/21 10:08:30;;;;;;;18.02;13.13;;;;;;;19.79;36.08;100259.91;5029558;28;20049;-75
2023/08/21 10:11:05;;;;;;;18.83;14.10;;;;;;;19.79;37.13;100259.91;5028535;28;20054;-72
2023/08/21 10:13:35;;;;;;;19.77;13.93;;;;;;;19.77;36.10;100261.69;5033015;28;20057;-71
2023/08/21 10:16:05;;;;;;;17.58;12.60;;;;;;;19.76;36.74;100265.19;5030660;28;20057;-73
2023/08/21 10:18:36;;;;;;;16.88;12.70;;;;;;;19.75;36.00;100262.63;5028470;28;20049;-75
2023/08/21 10:21:15;;;;;;;16.73;12.80;;;;;;;19.76;36.26;100259.09;5029459;28;20573;-76
2023/08/21 10:23:47;;;;;;;16.92;10.43;;;;;;;19.74;35.63;100266.13;5029354;28;21191;-76
2023/08/21 10:26:16;;;;;;;14.75;11.38;;;;;;;19.71;36.37;100264.41;5026551;28;20056;-75
2023/08/21 10:28:51;;;;;;;15.60;10.07;;;;;;;19.70;36.23;100253.91;5030835;28;20466;-77
2023/08/21 10:31:33;;;;;;;16.10;10.23;;;;;;;19.65;36.05;100262.72;5027384;28;20638;-76
2023/08/21 10:34:04;;;;;;;17.00;10.57;;;;;;;19.64;36.58;100260.13;5029810;28;20081;-75
2023/08/21 10:36:57;;;;;;;16.23;9.93;;;;;;;19.62;36.48;100251.41;5030554;28;20057;-74
2023/08/21 10:39:32;;;;;;;15.95;10.93;;;;;;;19.58;36.82;100249.72;5025192;28;20311;-74
2023/08/21 10:42:02;;;;;;;17.75;9.90;;;;;;;19.53;37.19;100247.16;5028905;28;20045;-75
2023/08/21 10:44:55;;;;;;;18.13;10.30;;;;;;;19.45;37.28;100243.81;5022930;28;20048;-74
2023/08/21 10:47:25;;;;;;;18.67;11.85;;;;;;;19.35;37.30;100258.78;5027695;28;20041;-74
2023/08/21 10:49:59;;;;;;;16.92;10.45;;;;;;;19.33;37.90;100270.19;5026543;28;20491;-73
2023/08/21 10:52:33;;;;;;;15.82;9.35;;;;;;;19.27;37.70;100262.44;5021880;28;20407;-76
2023/08/21 10:55:03;;;;;;;16.45;8.70;;;;;;;19.24;37.63;100251.09;5027390;28;20041;-73
2023/08/21 10:57:33;;;;;;;16.25;9.40;;;;;;;19.19;38.84;100249.41;5023598;28;20064;-74
2023/08/21 11:00:06;;;;;;;15.18;8.98;;;;;;;19.13;38.68;100252.13;5026848;28;20068;-74
2023/08/21 11:02:35;;;;;;;15.35;8.60;;;;;;;19.05;38.72;100255.69;5030779;28;20475;-74
2023/08/21 11:05:13;;;;;;;15.38;8.20;;;;;;;18.97;38.93;100268.06;5026418;28;20061;-73
2023/08/21 11:07:50;;;;;;;14.57;9.13;;;;;;;18.87;39.37;100266.44;5023276;28;20049;-75
2023/08/21 11:10:23;;;;;;;15.35;8.13;;;;;;;18.83;39.92;100264.75;5003642;28;20054;-76
2023/08/21 11:12:52;;;;;;;13.77;8.73;;;;;;;18.81;40.20;100253.41;5006980;28;20050;-75
2023/08/21 11:15:23;;;;;;;18.63;9.25;;;;;;;18.75;40.02;100258.69;5003616;28;20050;-73
2023/08/21 11:18:00;;;;;;;15.55;8.40;;;;;;;18.65;40.66;100257.94;5009122;28;20082;-73
2023/08/21 11:20:34;;;;;;;18.45;9.55;;;;;;;18.58;39.51;100270.25;5000864;28;20133;-72
2023/08/21 11:23:06;;;;;;;15.85;8.90;;;;;;;18.55;40.91;100267.63;5002947;28;20045;-72